Wetterdaten: aktuell Dienstag, 16.07.2019 03:24
Datum Zeit Temp. A. Feuchte A. Luftdruck Regen Wind Richtung Richtung Taupunkt Windchill Windben
16.07.2019 03:24 10,5 C 93 % 1017,0 hPa 0,0 l/m 6,4 km/h (2 Bft) SW 225 9,4 C 10,5 C 8,0 km/h (2 Bft)
16.07.2019 02:24 11,0 C 93 % 1017,2 hPa 0,0 l/m 4,8 km/h (1 Bft) S-SW 202 9,9 C 11,0 C 6,4 km/h (2 Bft)
16.07.2019 01:24 11,2 C 93 % 1016,9 hPa 0,0 l/m 3,2 km/h (1 Bft) S-SW 202 10,1 C 11,2 C 4,8 km/h (1 Bft)
16.07.2019 00:24 11,1 C 93 % 1016,8 hPa 0,0 l/m 3,2 km/h (1 Bft) S-SW 202 10,0 C 11,1 C 4,8 km/h (1 Bft)
15.07.2019 23:24 11,9 C 92 % 1016,8 hPa 0,0 l/m 1,6 km/h (1 Bft) O 90 10,6 C 11,9 C 3,2 km/h (1 Bft)
15.07.2019 22:24 13,2 C 91 % 1016,7 hPa 0,0 l/m 0,0 km/h (0 Bft) N 0 11,8 C 13,2 C 0,0 km/h (0 Bft)
15.07.2019 21:24 14,4 C 88 % 1016,4 hPa 0,0 l/m 0,0 km/h (0 Bft) N 0 12,4 C 14,4 C 0,0 km/h (0 Bft)
15.07.2019 20:24 17,1 C 77 % 1015,8 hPa 0,0 l/m 0,0 km/h (0 Bft) N 0 13,0 C 17,1 C 0,0 km/h (0 Bft)
15.07.2019 19:24 18,5 C 74 % 1015,4 hPa 0,0 l/m 0,0 km/h (0 Bft) O-NO 67 13,8 C 18,5 C 1,6 km/h (1 Bft)
15.07.2019 18:24 20,5 C 64 % 1015,0 hPa 0,0 l/m 1,6 km/h (1 Bft) O-NO 67 13,5 C 20,5 C 3,2 km/h (1 Bft)
15.07.2019 17:24 22,9 C 49 % 1014,9 hPa 0,0 l/m 6,4 km/h (2 Bft) N-NO 22 11,6 C 22,9 C 8,0 km/h (2 Bft)
15.07.2019 16:24 22,1 C 53 % 1015,2 hPa 0,0 l/m 3,2 km/h (1 Bft) O 90 12,1 C 22,1 C 4,8 km/h (1 Bft)
15.07.2019 15:24 22,2 C 55 % 1015,6 hPa 0,0 l/m 1,6 km/h (1 Bft) S-SO 157 12,7 C 22,2 C 4,8 km/h (1 Bft)
15.07.2019 14:24 21,5 C 57 % 1015,6 hPa 0,0 l/m 3,2 km/h (1 Bft) N-NO 22 12,6 C 21,5 C 6,4 km/h (2 Bft)
15.07.2019 13:24 21,7 C 56 % 1015,7 hPa 0,0 l/m 8,0 km/h (2 Bft) NO 45 12,5 C 21,1 C 14,5 km/h (3 Bft)
15.07.2019 12:24 19,8 C 65 % 1016,3 hPa 0,0 l/m 4,8 km/h (1 Bft) N-NO 22 13,0 C 19,8 C 6,4 km/h (2 Bft)
15.07.2019 11:24 19,6 C 66 % 1016,4 hPa 0,0 l/m 9,7 km/h (2 Bft) NO 45 13,1 C 18,3 C 14,5 km/h (3 Bft)
15.07.2019 10:24 17,9 C 71 % 1016,5 hPa 0,0 l/m 4,8 km/h (1 Bft) O 90 12,6 C 17,9 C 9,7 km/h (2 Bft)
15.07.2019 09:24 16,6 C 79 % 1016,5 hPa 0,0 l/m 6,4 km/h (2 Bft) N-NO 22 12,9 C 16,6 C 11,3 km/h (2 Bft)
15.07.2019 08:24 14,2 C 87 % 1016,5 hPa 0,0 l/m 6,4 km/h (2 Bft) NO 45 12,1 C 14,2 C 9,7 km/h (2 Bft)
15.07.2019 07:24 13,6 C 92 % 1016,1 hPa 0,0 l/m 4,8 km/h (1 Bft) O 90 12,3 C 13,6 C 11,3 km/h (2 Bft)
15.07.2019 06:24 12,7 C 95 % 1015,6 hPa 0,0 l/m 3,2 km/h (1 Bft) NO 45 11,9 C 12,7 C 9,7 km/h (2 Bft)
15.07.2019 05:24 12,3 C 94 % 1015,8 hPa 0,0 l/m 0,0 km/h (0 Bft) NO 45 11,4 C 12,3 C 3,2 km/h (1 Bft)
15.07.2019 04:24 12,6 C 94 % 1015,7 hPa 0,0 l/m 1,6 km/h (1 Bft) O-NO 67 11,7 C 12,6 C 4,8 km/h (1 Bft)
15.07.2019 04:00 12,7 C 94 % 1015,5 hPa 0,0 l/m 9,7 km/h (2 Bft) NO 45 11,8 C 10,7 C 11,3 km/h (2 Bft)
_ Min-Zeit 03:23 17:04 17:20 - 04:29 - - 03:23 02:16 04:41
Minimum _ 10,5 C 47 % 1014,8 hPa - 0,0 km/h (0 Bft) - - 9,4 C 9,9 C 0,0 km/h (0 Bft)
_ Max-Zeit 17:03 04:27 02:22 04:00 10:41 - - 19:53 17:15 10:45
Maximum _ 23,0 C 95 % 1017,2 hPa 0,0 l/m 14,5 km/h
NO (3 Bft)
- - 14,7 C 22,9 C 19,3 km/h
NO (3 Bft)
Durchschnitt _ 16,0 C 79 % 1016,0 hPa #0,0 l/m 4,2 km/h (1 Bft) NO - 12,0 C 15,8 C 6,7 km/h (2 Bft)